• Join FlightAware (Why Join?)
  • Login
  • US Flag 
06:58AM EST


 

Airport Tracker/Info


-or-


 

Live Flight TrackerFlight Track Log ✈ EJA922 ✈ 07-Oct-2013 ✈ KHOU - KAUS

Flight Track Log - Related Links

Times and Time Zones

All times are in EDT time to prevent confusion due to time zone crossing. See the EJA922 flight status page for this flight to view local times or setup timezone preferences in your user account.

Time Position Orientation Groundspeed Altitude Reporting Facility
EDT Latitude Longitude Course Direction KTS MPH feet Rate Location/Type
03:28PM 29.7314 -95.3497 324° Northwest 227 261 6,000  Level Houston Center
03:29PM 29.7364 -95.3642 292° West 228 262 6,300 2,100 Climbing Houston Center
03:30PM 29.7578 -95.4472 287° West 271 312 8,800 2,040 Climbing Houston Center
03:31PM 29.7842 -95.5386 288° West 296 341 10,600 1,440 Climbing Houston Center
03:32PM 29.8233 -95.6725 289° West 366 421 11,800 660 Climbing Houston Center
03:33PM 29.8581 -95.7956 288° West 402 463 12,000 60 Climbing Houston Center
03:34PM 29.8928 -95.9219 288° West 413 475 12,000  Level Houston Center
03:35PM 29.9281 -96.0533 287° West 404 465 12,000  Level Houston Center
03:36PM 29.9353 -96.1811 274° West 402 463 12,000  Level Houston Center
03:37PM 29.9431 -96.3144 274° West 416 479 12,000  Level Houston Center
03:38PM 29.9489 -96.4450 273° West 413 475 12,000  Level Houston Center
03:39PM 29.9667 -96.5992 278° West 409 471 12,000  Level Houston Center
03:40PM 30.0044 -96.7228 289° West 411 473 12,000  Level Houston Center
03:41PM 30.0422 -96.8469 289° West 412 474 12,000 -660 Level Houston Center
03:42PM 30.0739 -96.9528 289° West 353 406 10,700 -1,200 Descending Houston Center
03:43PM 30.1028 -97.0497 289° West 312 359 9,600 -840 Descending Houston Center
03:44PM 30.1261 -97.1292 289° West 264 304 9,000 -300 Descending Houston Center
03:45PM 30.1522 -97.2153 289° West 242 278 9,000  Level Houston Center
03:46PM 30.1756 -97.2886 290° West 241 277 9,000 -480 Level Houston Center
03:47PM 30.1819 -97.3661 275° West 239 275 8,000 -1,020 Descending Houston Center
03:48PM 30.1844 -97.4458 272° West 243 280 6,900 -1,020 Descending Houston Center
03:49PM 30.1861 -97.5206 271° West 236 272 5,900 -1,020 Descending Houston Center
03:50PM 30.1378 -97.5578 214° Southwest 222 255 4,900 -1,260 Descending Houston Center
03:51PM 30.0875 -97.5858 206° Southwest 203 234 3,400 -1,200 Descending Houston Center
03:52PM 30.0969 -97.6514 279° West 174 200 2,500 -1,020 Descending Houston Center
03:53PM 30.1381 -97.6567 354° North 155 178 1,300 -660 Descending Houston Center
03:54PM 30.1822 -97.6594 357° North 156 180 1,200 -120 Descending Houston Center
03:56PM 30.1833 -97.6667 270° West  Level FlightAware Approximate